Time;durP1;ratioP1;P1;durP2;ratioP2;P2;SDS_P1;SDS_P2;PMS_P1;PMS_P2;Temp;Humidity;BMP_temperature;BMP_pressure;BME280_temperature;BME280_humidity;BME280_pressure;Samples;Min_cycle;Max_cycle;Signal;HPM_P1;HPM_P2
2024/02/23 00:00:05;;;;;;;2.90;0.95;;;;;;;;;;5067821;28;20035;-65
2024/02/23 00:02:31;;;;;;;0.30;0.30;;;;;;;;;;5063116;28;20379;-65
2024/02/23 00:04:57;;;;;;;4.10;0.73;;;;;;;;;;5069765;28;20402;-65
2024/02/23 00:07:23;;;;;;;2.85;0.80;;;;;;;;;;5070288;28;20036;-65
2024/02/23 00:09:50;;;;;;;1.48;0.70;;;;;;;;;;5068684;28;20021;-65
2024/02/23 00:12:15;;;;;;;2.25;0.70;;;;;;;;;;5066903;28;20027;-65
2024/02/23 00:14:41;;;;;;;4.75;0.82;;;;;;;;;;5067608;28;20029;-65
2024/02/23 00:17:07;;;;;;;2.03;0.60;;;;;;;;;;5069866;28;20036;-65
2024/02/23 00:19:33;;;;;;;6.53;0.80;;;;;;;;;;5066271;28;20020;-64
2024/02/23 00:22:00;;;;;;;1.10;0.43;;;;;;;;;;5068331;28;20517;-64
2024/02/23 00:24:26;;;;;;;2.38;0.77;;;;;;;;;;5073094;28;20576;-65
2024/02/23 00:26:52;;;;;;;3.03;0.50;;;;;;;;;;5063931;28;20028;-65
2024/02/23 00:29:18;;;;;;;3.17;0.60;;;;;;;;;;5068195;28;20038;-64
2024/02/23 00:31:47;;;;;;;1.33;0.60;;;;;;;;;;5066099;28;20051;-65
2024/02/23 00:34:13;;;;;;;4.35;0.70;;;;;;;;;;5072163;28;20025;-66
2024/02/23 00:36:40;;;;;;;3.67;1.05;;;;;;;;;;5069430;28;20031;-65
2024/02/23 00:39:07;;;;;;;1.10;0.70;;;;;;;;;;5070003;28;20033;-65
2024/02/23 00:41:33;;;;;;;6.18;0.90;;;;;;;;;;5064404;28;20239;-65
2024/02/23 00:43:59;;;;;;;5.88;0.82;;;;;;;;;;5067587;28;20052;-65
2024/02/23 00:46:25;;;;;;;3.50;1.05;;;;;;;;;;5074974;28;20471;-65
2024/02/23 00:48:51;;;;;;;1.08;0.70;;;;;;;;;;5070094;28;20992;-65
2024/02/23 00:51:17;;;;;;;2.05;0.93;;;;;;;;;;5071135;28;20036;-65
2024/02/23 00:53:43;;;;;;;4.22;0.90;;;;;;;;;;5071572;28;20406;-64
2024/02/23 00:56:09;;;;;;;1.77;0.77;;;;;;;;;;5070727;28;20028;-64
2024/02/23 00:58:35;;;;;;;2.00;0.52;;;;;;;;;;5076301;28;20035;-63
2024/02/23 01:01:01;;;;;;;1.15;0.70;;;;;;;;;;5074254;28;20025;-64
2024/02/23 01:03:27;;;;;;;1.48;0.60;;;;;;;;;;5073200;28;20029;-65
2024/02/23 01:05:53;;;;;;;2.58;0.50;;;;;;;;;;5072784;28;20455;-65
2024/02/23 01:08:19;;;;;;;2.60;0.80;;;;;;;;;;5080266;28;20025;-64
2024/02/23 01:10:45;;;;;;;2.55;0.70;;;;;;;;;;5071819;28;20020;-64
2024/02/23 01:13:11;;;;;;;2.28;0.70;;;;;;;;;;5081348;28;20025;-65
2024/02/23 01:15:37;;;;;;;4.10;1.05;;;;;;;;;;5072896;28;20093;-65
2024/02/23 01:18:05;;;;;;;1.33;0.50;;;;;;;;;;5077376;28;20166;-64
2024/02/23 01:20:31;;;;;;;1.20;0.70;;;;;;;;;;5074739;28;20394;-65
2024/02/23 01:22:57;;;;;;;1.67;0.88;;;;;;;;;;5073842;28;20025;-65
2024/02/23 01:25:23;;;;;;;8.27;1.10;;;;;;;;;;5078034;28;20025;-65
2024/02/23 01:27:49;;;;;;;9.27;1.30;;;;;;;;;;5079538;28;20103;-64
2024/02/23 01:30:15;;;;;;;2.95;1.15;;;;;;;;;;5084282;28;20029;-63
2024/02/23 01:32:41;;;;;;;4.55;0.95;;;;;;;;;;5077402;28;20383;-64
2024/02/23 01:35:08;;;;;;;3.17;1.00;;;;;;;;;;5076803;28;20032;-65
2024/02/23 01:37:34;;;;;;;5.50;1.13;;;;;;;;;;5069881;28;20438;-65
2024/02/23 01:40:00;;;;;;;1.98;0.80;;;;;;;;;;5075939;28;20065;-65
2024/02/23 01:42:26;;;;;;;4.00;0.90;;;;;;;;;;5057597;28;20036;-64
2024/02/23 01:44:52;;;;;;;3.10;0.80;;;;;;;;;;5073490;28;20526;-65
2024/02/23 01:47:18;;;;;;;3.15;0.98;;;;;;;;;;5072753;28;20047;-65
2024/02/23 01:49:47;;;;;;;4.68;1.13;;;;;;;;;;5075362;28;20025;-64
2024/02/23 01:52:14;;;;;;;5.10;2.20;;;;;;;;;;5079803;28;20419;-65
2024/02/23 01:54:40;;;;;;;3.28;1.13;;;;;;;;;;5076730;28;20024;-64
2024/02/23 01:57:07;;;;;;;6.00;1.17;;;;;;;;;;5080839;28;20060;-64
2024/02/23 01:59:36;;;;;;;14.95;1.08;;;;;;;;;;5077539;28;20511;-65
2024/02/23 02:02:02;;;;;;;8.43;0.88;;;;;;;;;;5075720;28;20020;-64
2024/02/23 02:04:28;;;;;;;4.55;0.70;;;;;;;;;;5067371;28;20025;-64
2024/02/23 02:06:55;;;;;;;7.20;1.10;;;;;;;;;;5076416;28;20131;-64
2024/02/23 02:09:21;;;;;;;3.80;0.90;;;;;;;;;;5071906;28;20025;-64
2024/02/23 02:11:47;;;;;;;4.88;1.35;;;;;;;;;;5081467;28;20074;-65
2024/02/23 02:14:13;;;;;;;4.63;1.00;;;;;;;;;;5070675;28;20032;-64
2024/02/23 02:16:39;;;;;;;5.38;1.00;;;;;;;;;;5070488;28;20029;-63
2024/02/23 02:19:05;;;;;;;2.97;0.90;;;;;;;;;;5070311;28;20079;-66
2024/02/23 02:21:35;;;;;;;9.32;1.25;;;;;;;;;;5068103;28;20052;-65
2024/02/23 02:24:00;;;;;;;5.47;1.48;;;;;;;;;;5072340;28;20025;-65
2024/02/23 02:26:26;;;;;;;8.48;0.95;;;;;;;;;;5071237;28;20093;-70
2024/02/23 02:28:52;;;;;;;8.40;1.02;;;;;;;;;;5075154;28;20028;-65
2024/02/23 02:31:18;;;;;;;2.67;0.82;;;;;;;;;;5069825;28;20025;-65
2024/02/23 02:33:44;;;;;;;11.10;1.05;;;;;;;;;;5070602;28;20568;-63
2024/02/23 02:36:11;;;;;;;9.82;1.10;;;;;;;;;;5065215;28;20064;-65
2024/02/23 02:38:37;;;;;;;6.72;0.85;;;;;;;;;;5067277;28;20025;-65
2024/02/23 02:41:03;;;;;;;5.45;1.08;;;;;;;;;;5070810;28;20029;-65
2024/02/23 02:43:29;;;;;;;5.95;0.90;;;;;;;;;;5078305;28;20084;-65
2024/02/23 02:45:55;;;;;;;2.83;0.80;;;;;;;;;;5067187;28;20040;-64
2024/02/23 02:48:21;;;;;;;7.97;1.08;;;;;;;;;;5069654;28;20020;-65
2024/02/23 02:50:47;;;;;;;11.00;1.55;;;;;;;;;;5070353;28;20032;-65
2024/02/23 02:53:13;;;;;;;8.00;0.70;;;;;;;;;;5069649;28;20031;-65
2024/02/23 02:55:42;;;;;;;5.75;1.10;;;;;;;;;;5066802;28;20641;-65
2024/02/23 02:58:08;;;;;;;2.42;0.70;;;;;;;;;;5075212;28;20035;-65
2024/02/23 03:00:34;;;;;;;4.65;0.55;;;;;;;;;;5063131;28;20450;-65
2024/02/23 03:03:00;;;;;;;2.90;0.90;;;;;;;;;;5065574;28;20045;-65
2024/02/23 03:05:26;;;;;;;2.72;0.60;;;;;;;;;;5068984;28;20031;-65
2024/02/23 03:07:52;;;;;;;4.22;0.75;;;;;;;;;;5070692;28;20514;-65
2024/02/23 03:10:18;;;;;;;2.08;0.77;;;;;;;;;;5068853;28;20024;-65
2024/02/23 03:12:44;;;;;;;4.43;0.85;;;;;;;;;;5070306;28;20029;-64
2024/02/23 03:15:10;;;;;;;3.35;0.68;;;;;;;;;;5066386;28;20344;-65
2024/02/23 03:17:36;;;;;;;5.43;0.65;;;;;;;;;;5066639;28;20075;-65
2024/02/23 03:20:10;;;;;;;7.60;0.88;;;;;;;;;;5069378;28;20678;-65
2024/02/23 03:22:36;;;;;;;4.18;0.73;;;;;;;;;;5063383;28;20024;-65
2024/02/23 03:25:08;;;;;;;6.88;0.95;;;;;;;;;;5069633;28;20039;-65
2024/02/23 03:27:38;;;;;;;2.15;0.70;;;;;;;;;;5072018;28;20119;-65
2024/02/23 03:30:04;;;;;;;5.97;0.82;;;;;;;;;;5068418;28;20094;-65
2024/02/23 03:32:36;;;;;;;4.68;0.70;;;;;;;;;;5060277;28;20020;-65
2024/02/23 03:35:08;;;;;;;1.45;0.75;;;;;;;;;;5069175;28;20048;-65
2024/02/23 03:37:34;;;;;;;5.35;0.77;;;;;;;;;;5069759;28;20024;-64
2024/02/23 03:40:00;;;;;;;8.73;1.33;;;;;;;;;;5081133;28;20028;-64
2024/02/23 03:42:27;;;;;;;5.50;0.80;;;;;;;;;;5076903;28;20028;-64
2024/02/23 03:44:53;;;;;;;3.13;0.60;;;;;;;;;;5077516;28;20100;-64
2024/02/23 03:47:19;;;;;;;11.30;0.75;;;;;;;;;;5067279;28;20368;-64
2024/02/23 03:49:45;;;;;;;4.47;0.80;;;;;;;;;;5066624;28;20030;-63
2024/02/23 03:52:11;;;;;;;3.83;1.02;;;;;;;;;;5063640;28;20060;-64
2024/02/23 03:54:37;;;;;;;5.13;1.10;;;;;;;;;;5068163;28;20028;-65
2024/02/23 03:57:03;;;;;;;3.50;0.90;;;;;;;;;;5065463;28;20029;-64
2024/02/23 03:59:29;;;;;;;4.25;1.27;;;;;;;;;;5071875;28;20080;-64
2024/02/23 04:01:55;;;;;;;2.15;0.68;;;;;;;;;;5066917;28;20024;-63
2024/02/23 04:04:21;;;;;;;5.95;1.00;;;;;;;;;;5074702;28;20039;-64
2024/02/23 04:06:47;;;;;;;7.53;0.70;;;;;;;;;;5065929;28;20036;-63
2024/02/23 04:09:13;;;;;;;2.25;0.70;;;;;;;;;;5065583;28;20051;-64
2024/02/23 04:11:39;;;;;;;6.07;0.80;;;;;;;;;;5071208;28;20044;-64
2024/02/23 04:14:05;;;;;;;6.90;0.93;;;;;;;;;;5064413;28;20033;-63
2024/02/23 04:16:31;;;;;;;3.20;0.93;;;;;;;;;;5068831;28;20038;-64
2024/02/23 04:18:59;;;;;;;1.52;0.65;;;;;;;;;;5073655;28;20078;-65
2024/02/23 04:21:25;;;;;;;5.57;0.73;;;;;;;;;;5070492;28;20432;-63
2024/02/23 04:23:51;;;;;;;8.25;1.30;;;;;;;;;;5073686;28;20447;-63
2024/02/23 04:26:17;;;;;;;7.60;1.23;;;;;;;;;;5066807;28;20099;-64
2024/02/23 04:28:43;;;;;;;3.45;0.90;;;;;;;;;;5073815;28;20394;-64
2024/02/23 04:31:09;;;;;;;3.90;0.80;;;;;;;;;;5069242;28;20124;-64
2024/02/23 04:33:36;;;;;;;7.13;0.73;;;;;;;;;;5072125;28;20482;-63
2024/02/23 04:36:03;;;;;;;2.30;0.65;;;;;;;;;;5074545;28;20037;-64
2024/02/23 04:38:29;;;;;;;3.88;0.80;;;;;;;;;;5067980;28;20059;-64
2024/02/23 04:40:56;;;;;;;8.73;1.67;;;;;;;;;;5069308;28;20135;-64
2024/02/23 04:43:22;;;;;;;6.40;1.38;;;;;;;;;;5066120;28;20540;-64
2024/02/23 04:45:48;;;;;;;5.85;0.70;;;;;;;;;;5070148;28;20027;-64
2024/02/23 04:48:15;;;;;;;5.47;0.75;;;;;;;;;;5069356;28;20391;-64
2024/02/23 04:50:40;;;;;;;7.15;0.93;;;;;;;;;;5070755;28;20436;-64
2024/02/23 04:53:07;;;;;;;5.07;0.98;;;;;;;;;;5071680;28;20020;-64
2024/02/23 04:55:33;;;;;;;4.57;0.95;;;;;;;;;;5069631;28;20478;-63
2024/02/23 04:57:59;;;;;;;4.30;0.63;;;;;;;;;;5068447;28;20047;-64
2024/02/23 05:00:32;;;;;;;3.38;0.93;;;;;;;;;;5068861;28;20031;-65
2024/02/23 05:02:58;;;;;;;3.35;1.25;;;;;;;;;;5068208;28;20032;-64
2024/02/23 05:05:24;;;;;;;6.07;0.75;;;;;;;;;;5070360;28;20036;-65
2024/02/23 05:07:50;;;;;;;6.57;1.20;;;;;;;;;;5069098;28;20020;-64
2024/02/23 05:10:17;;;;;;;2.78;0.77;;;;;;;;;;5069383;28;20533;-64
2024/02/23 05:12:43;;;;;;;4.82;0.80;;;;;;;;;;5065453;28;20190;-64
2024/02/23 05:15:09;;;;;;;11.18;1.42;;;;;;;;;;5072891;28;20123;-64
2024/02/23 05:17:35;;;;;;;7.43;1.20;;;;;;;;;;5067154;28;20152;-64
2024/02/23 05:20:07;;;;;;;5.97;0.80;;;;;;;;;;5076267;28;20032;-64
2024/02/23 05:22:33;;;;;;;13.00;1.25;;;;;;;;;;5074271;28;20025;-64
2024/02/23 05:24:59;;;;;;;2.58;0.70;;;;;;;;;;5071537;28;20040;-64
2024/02/23 05:27:27;;;;;;;4.25;1.08;;;;;;;;;;5070116;28;20395;-65
2024/02/23 05:29:53;;;;;;;8.07;0.90;;;;;;;;;;5064829;28;20079;-65
2024/02/23 05:32:20;;;;;;;9.48;1.15;;;;;;;;;;5068307;28;20036;-64
2024/02/23 05:34:46;;;;;;;5.25;0.90;;;;;;;;;;5067987;28;20402;-64
2024/02/23 05:37:12;;;;;;;9.15;1.40;;;;;;;;;;5069270;28;20427;-64
2024/02/23 05:39:38;;;;;;;3.45;1.17;;;;;;;;;;5068843;28;20021;-65
2024/02/23 05:42:04;;;;;;;4.43;1.08;;;;;;;;;;5071616;28;20539;-65
2024/02/23 05:44:30;;;;;;;11.23;1.10;;;;;;;;;;5064846;28;20048;-65
2024/02/23 05:46:56;;;;;;;9.82;1.17;;;;;;;;;;5075165;28;20072;-64
2024/02/23 05:49:22;;;;;;;5.30;0.90;;;;;;;;;;5070390;28;20021;-65
2024/02/23 05:51:48;;;;;;;6.43;1.73;;;;;;;;;;5065462;28;20031;-63
2024/02/23 05:54:14;;;;;;;1.92;1.00;;;;;;;;;;5065253;28;20044;-65
2024/02/23 05:56:40;;;;;;;5.43;0.85;;;;;;;;;;5067917;28;20032;-64
2024/02/23 05:59:06;;;;;;;8.57;1.38;;;;;;;;;;5066047;28;20102;-64
2024/02/23 06:01:32;;;;;;;7.15;0.70;;;;;;;;;;5065737;28;20143;-65
2024/02/23 06:03:58;;;;;;;9.40;1.20;;;;;;;;;;5069468;28;20060;-64
2024/02/23 06:06:24;;;;;;;8.77;0.75;;;;;;;;;;5066293;28;20028;-63
2024/02/23 06:08:50;;;;;;;4.40;1.10;;;;;;;;;;5044879;28;20510;-64
2024/02/23 06:11:16;;;;;;;14.55;0.98;;;;;;;;;;5067025;28;20032;-64
2024/02/23 06:13:42;;;;;;;5.32;0.70;;;;;;;;;;5062346;28;20031;-64
2024/02/23 06:16:11;;;;;;;3.80;0.80;;;;;;;;;;5062018;28;20459;-65
2024/02/23 06:18:40;;;;;;;8.50;1.00;;;;;;;;;;5061132;28;20490;-64
2024/02/23 06:21:14;;;;;;;3.92;1.00;;;;;;;;;;5068046;28;20028;-64
2024/02/23 06:23:40;;;;;;;6.35;1.02;;;;;;;;;;5063602;28;20024;-63
2024/02/23 06:26:06;;;;;;;4.35;1.38;;;;;;;;;;5066588;28;20033;-64
2024/02/23 06:28:32;;;;;;;2.58;1.02;;;;;;;;;;5063583;28;20028;-65
2024/02/23 06:30:58;;;;;;;6.50;1.25;;;;;;;;;;5068220;28;20486;-64
2024/02/23 06:33:24;;;;;;;4.07;1.08;;;;;;;;;;5065902;28;20074;-65
2024/02/23 06:35:52;;;;;;;5.35;0.93;;;;;;;;;;5064753;28;20012;-64
2024/02/23 06:38:18;;;;;;;7.32;1.27;;;;;;;;;;5068828;28;20496;-64
2024/02/23 06:40:44;;;;;;;5.43;1.05;;;;;;;;;;5069563;28;20078;-65
2024/02/23 06:43:10;;;;;;;5.65;1.30;;;;;;;;;;5069394;28;20682;-64
2024/02/23 06:45:36;;;;;;;8.32;1.38;;;;;;;;;;5069094;28;20148;-64
2024/02/23 06:48:02;;;;;;;7.53;1.45;;;;;;;;;;5065260;28;20115;-64
2024/02/23 06:50:28;;;;;;;7.78;1.40;;;;;;;;;;5061543;28;20028;-65
2024/02/23 06:52:54;;;;;;;8.05;1.23;;;;;;;;;;5072109;28;20390;-64
2024/02/23 06:55:20;;;;;;;5.32;1.20;;;;;;;;;;5068781;28;20957;-64
2024/02/23 06:57:47;;;;;;;5.43;1.52;;;;;;;;;;5067659;28;20044;-64
2024/02/23 07:00:13;;;;;;;12.25;1.15;;;;;;;;;;5067662;28;20020;-64
2024/02/23 07:02:39;;;;;;;15.32;1.77;;;;;;;;;;5065245;28;20491;-64
2024/02/23 07:05:05;;;;;;;6.18;1.15;;;;;;;;;;5069711;28;20025;-64
2024/02/23 07:07:32;;;;;;;14.93;2.40;;;;;;;;;;5067661;28;20040;-64
2024/02/23 07:09:58;;;;;;;13.95;1.52;;;;;;;;;;5066854;28;20085;-64
2024/02/23 07:12:27;;;;;;;11.50;1.25;;;;;;;;;;5069886;28;20024;-65
2024/02/23 07:14:52;;;;;;;7.18;1.33;;;;;;;;;;5063046;28;20024;-64
2024/02/23 07:17:19;;;;;;;5.53;1.30;;;;;;;;;;5064141;28;20082;-64
2024/02/23 07:19:45;;;;;;;5.32;1.33;;;;;;;;;;5068342;28;20082;-64
2024/02/23 07:22:11;;;;;;;5.63;1.50;;;;;;;;;;5069112;28;20066;-64
2024/02/23 07:24:40;;;;;;;8.98;1.40;;;;;;;;;;5065687;28;20430;-64
2024/02/23 07:27:06;;;;;;;5.30;1.70;;;;;;;;;;5066563;28;20119;-64
2024/02/23 07:29:32;;;;;;;9.35;2.38;;;;;;;;;;5067216;28;20206;-64
2024/02/23 07:31:58;;;;;;;8.45;1.55;;;;;;;;;;5066093;28;20036;-64
2024/02/23 07:34:24;;;;;;;8.30;1.58;;;;;;;;;;5066322;28;20029;-63
2024/02/23 07:36:53;;;;;;;8.02;1.85;;;;;;;;;;5072356;28;20073;-63
2024/02/23 07:39:20;;;;;;;7.97;2.25;;;;;;;;;;5068966;28;20077;-64
2024/02/23 07:41:45;;;;;;;6.13;1.55;;;;;;;;;;5071557;28;20056;-63
2024/02/23 07:44:12;;;;;;;7.18;1.95;;;;;;;;;;5061982;28;20068;-64
2024/02/23 07:46:38;;;;;;;8.57;2.05;;;;;;;;;;5065053;28;20029;-64
2024/02/23 07:49:05;;;;;;;5.25;1.80;;;;;;;;;;5061290;28;20032;-64
2024/02/23 07:51:32;;;;;;;4.07;1.10;;;;;;;;;;5066187;28;20021;-63
2024/02/23 07:53:58;;;;;;;7.72;1.13;;;;;;;;;;5049785;28;20029;-64
2024/02/23 07:56:24;;;;;;;9.82;1.10;;;;;;;;;;5066088;28;20046;-64
2024/02/23 07:58:50;;;;;;;6.60;1.10;;;;;;;;;;5067617;28;20032;-64
2024/02/23 08:01:15;;;;;;;8.02;1.40;;;;;;;;;;5065691;28;20032;-64
2024/02/23 08:03:41;;;;;;;3.45;1.10;;;;;;;;;;5062286;28;20056;-64
2024/02/23 08:06:07;;;;;;;5.45;1.13;;;;;;;;;;5066607;28;20131;-64
2024/02/23 08:08:35;;;;;;;5.63;1.30;;;;;;;;;;5066273;28;20467;-65
2024/02/23 08:11:02;;;;;;;4.47;1.15;;;;;;;;;;5070506;28;20032;-64
2024/02/23 08:13:28;;;;;;;7.85;1.48;;;;;;;;;;5066696;28;20059;-63
2024/02/23 08:15:54;;;;;;;3.67;0.90;;;;;;;;;;5069878;28;20105;-65
2024/02/23 08:18:22;;;;;;;7.45;1.40;;;;;;;;;;5063558;28;20021;-64
2024/02/23 08:20:48;;;;;;;9.20;1.45;;;;;;;;;;5063208;28;20014;-65
2024/02/23 08:23:14;;;;;;;13.18;0.90;;;;;;;;;;5067889;28;20031;-64
2024/02/23 08:25:40;;;;;;;7.57;1.17;;;;;;;;;;5062668;28;20123;-63
2024/02/23 08:28:06;;;;;;;9.98;1.30;;;;;;;;;;5066066;28;20029;-64
2024/02/23 08:30:32;;;;;;;9.93;1.42;;;;;;;;;;5065157;28;20044;-64
2024/02/23 08:32:58;;;;;;;11.68;1.77;;;;;;;;;;5064742;28;20052;-64
2024/02/23 08:35:24;;;;;;;8.00;1.30;;;;;;;;;;5065371;28;20116;-63
2024/02/23 08:37:50;;;;;;;7.53;1.20;;;;;;;;;;5067302;28;20039;-64
2024/02/23 08:40:16;;;;;;;3.85;1.15;;;;;;;;;;5067917;28;20060;-63
2024/02/23 08:42:42;;;;;;;7.28;1.45;;;;;;;;;;5074640;28;20078;-64
2024/02/23 08:45:09;;;;;;;11.57;0.90;;;;;;;;;;5069115;28;20545;-64
2024/02/23 08:47:35;;;;;;;3.10;1.00;;;;;;;;;;5058396;28;20090;-64
2024/02/23 08:50:02;;;;;;;5.00;0.98;;;;;;;;;;5060437;28;20031;-63
2024/02/23 08:52:28;;;;;;;10.52;0.93;;;;;;;;;;5066785;28;20021;-64
2024/02/23 08:54:54;;;;;;;9.48;1.95;;;;;;;;;;5061269;28;20036;-63
2024/02/23 08:57:22;;;;;;;10.73;1.52;;;;;;;;;;5063191;28;20033;-64
2024/02/23 08:59:48;;;;;;;7.10;1.33;;;;;;;;;;5056624;28;20371;-64
2024/02/23 09:02:14;;;;;;;5.65;1.25;;;;;;;;;;5065971;28;20025;-64
2024/02/23 09:04:40;;;;;;;7.85;0.90;;;;;;;;;;5066800;28;20092;-64
2024/02/23 09:07:06;;;;;;;5.75;1.40;;;;;;;;;;5065915;28;20977;-64
2024/02/23 09:09:32;;;;;;;4.30;1.08;;;;;;;;;;5066730;28;20036;-65
2024/02/23 09:11:58;;;;;;;12.38;2.50;;;;;;;;;;5071225;28;20035;-64
2024/02/23 09:14:25;;;;;;;7.28;1.33;;;;;;;;;;5066374;28;20025;-63
2024/02/23 09:16:51;;;;;;;5.50;1.08;;;;;;;;;;5068464;28;20694;-64
2024/02/23 09:19:18;;;;;;;1.25;0.77;;;;;;;;;;5070331;28;20036;-64
2024/02/23 09:21:44;;;;;;;6.05;0.88;;;;;;;;;;5067340;28;20048;-65
2024/02/23 09:24:10;;;;;;;12.73;1.30;;;;;;;;;;5065061;28;20522;-65
2024/02/23 09:26:36;;;;;;;5.18;1.08;;;;;;;;;;5067723;28;20122;-64
2024/02/23 09:29:02;;;;;;;5.03;0.80;;;;;;;;;;5065648;28;20025;-64
2024/02/23 09:31:28;;;;;;;3.10;1.00;;;;;;;;;;5063778;28;20029;-64
2024/02/23 09:33:56;;;;;;;6.90;1.20;;;;;;;;;;5069343;28;20082;-64
2024/02/23 09:36:22;;;;;;;2.83;0.70;;;;;;;;;;5062877;28;20066;-64
2024/02/23 09:38:50;;;;;;;6.55;1.17;;;;;;;;;;5069058;28;20103;-65
2024/02/23 09:41:19;;;;;;;5.13;1.00;;;;;;;;;;5061835;28;20035;-64
2024/02/23 09:43:47;;;;;;;6.97;0.80;;;;;;;;;;5066332;28;20032;-62
2024/02/23 09:46:14;;;;;;;2.58;0.77;;;;;;;;;;5063189;28;20087;-62
2024/02/23 09:48:41;;;;;;;5.00;1.02;;;;;;;;;;5070055;28;20146;-62
2024/02/23 09:51:07;;;;;;;3.60;0.70;;;;;;;;;;5061975;28;20032;-63
2024/02/23 09:53:34;;;;;;;3.63;0.80;;;;;;;;;;5070150;28;20059;-62
2024/02/23 09:56:00;;;;;;;2.22;0.77;;;;;;;;;;5061827;28;20021;-62
2024/02/23 09:58:29;;;;;;;8.68;0.95;;;;;;;;;;5066262;28;20033;-62
2024/02/23 10:00:55;;;;;;;5.75;0.90;;;;;;;;;;5067771;28;20021;-62
2024/02/23 10:03:25;;;;;;;2.72;0.60;;;;;;;;;;5072164;28;20363;-62
2024/02/23 10:05:51;;;;;;;3.03;0.60;;;;;;;;;;5066353;28;20139;-63
2024/02/23 10:08:17;;;;;;;1.73;0.63;;;;;;;;;;5068294;28;20491;-62
2024/02/23 10:10:46;;;;;;;3.53;0.82;;;;;;;;;;5065253;28;20750;-63
2024/02/23 10:13:12;;;;;;;2.55;0.60;;;;;;;;;;5064888;28;20429;-62
2024/02/23 10:15:38;;;;;;;7.05;0.95;;;;;;;;;;5067630;28;20467;-63
2024/02/23 10:18:05;;;;;;;5.45;1.00;;;;;;;;;;5069932;28;20036;-62
2024/02/23 10:20:31;;;;;;;6.75;1.10;;;;;;;;;;5062420;28;20034;-63
2024/02/23 10:22:57;;;;;;;4.05;0.77;;;;;;;;;;5064501;28;20099;-62
2024/02/23 10:25:23;;;;;;;5.18;0.85;;;;;;;;;;5068445;28;20108;-63
2024/02/23 10:27:49;;;;;;;2.88;0.57;;;;;;;;;;5068409;28;20032;-63
2024/02/23 10:30:15;;;;;;;1.65;0.70;;;;;;;;;;5061053;28;20028;-61
2024/02/23 10:32:42;;;;;;;4.88;0.93;;;;;;;;;;5062983;28;20024;-61
2024/02/23 10:35:15;;;;;;;2.08;0.90;;;;;;;;;;5069402;28;20560;-62
2024/02/23 10:37:43;;;;;;;5.68;0.80;;;;;;;;;;5063529;28;20032;-61
2024/02/23 10:40:11;;;;;;;5.88;0.93;;;;;;;;;;5058109;28;20379;-62
2024/02/23 10:42:37;;;;;;;2.17;0.60;;;;;;;;;;5057044;28;20549;-61
2024/02/23 10:45:04;;;;;;;3.70;0.82;;;;;;;;;;5062764;28;20036;-60
2024/02/23 10:47:31;;;;;;;10.75;1.65;;;;;;;;;;5060704;28;20493;-62
2024/02/23 10:49:57;;;;;;;3.60;0.70;;;;;;;;;;5062452;28;20064;-64
2024/02/23 10:52:24;;;;;;;4.43;0.90;;;;;;;;;;5063130;28;20125;-62
2024/02/23 10:54:51;;;;;;;6.90;1.08;;;;;;;;;;5065426;28;20430;-63
2024/02/23 10:57:18;;;;;;;2.90;0.70;;;;;;;;;;5056305;28;20126;-61
2024/02/23 10:59:47;;;;;;;5.50;1.15;;;;;;;;;;5065098;28;20585;-62
2024/02/23 11:02:17;;;;;;;2.38;0.65;;;;;;;;;;5065253;28;20460;-61
2024/02/23 11:04:46;;;;;;;3.00;0.75;;;;;;;;;;5061676;28;20028;-62
2024/02/23 11:07:15;;;;;;;5.07;1.20;;;;;;;;;;5065203;28;20039;-60
2024/02/23 11:09:41;;;;;;;1.80;0.70;;;;;;;;;;5058347;28;20510;-61
2024/02/23 11:12:09;;;;;;;5.78;1.50;;;;;;;;;;5064061;28;20123;-62
2024/02/23 11:14:36;;;;;;;2.85;1.00;;;;;;;;;;5062761;28;20048;-62
2024/02/23 11:17:02;;;;;;;6.47;1.13;;;;;;;;;;5066771;28;20453;-61
2024/02/23 11:19:38;;;;;;;7.57;1.02;;;;;;;;;;5067357;28;20043;-62
2024/02/23 11:22:04;;;;;;;9.73;0.90;;;;;;;;;;5066657;28;20103;-62
2024/02/23 11:24:31;;;;;;;2.45;0.75;;;;;;;;;;5067413;28;20131;-62
2024/02/23 11:26:58;;;;;;;3.40;0.90;;;;;;;;;;5063846;28;20120;-62
2024/02/23 11:29:27;;;;;;;6.05;1.45;;;;;;;;;;5062237;28;20029;-62
2024/02/23 11:31:56;;;;;;;5.93;1.08;;;;;;;;;;5064328;28;20020;-61
2024/02/23 11:34:27;;;;;;;3.40;1.10;;;;;;;;;;5065658;28;20020;-62
2024/02/23 11:36:53;;;;;;;4.18;1.10;;;;;;;;;;5060319;28;20090;-61
2024/02/23 11:39:20;;;;;;;4.95;1.00;;;;;;;;;;5061729;28;20031;-63
2024/02/23 11:41:49;;;;;;;9.00;1.05;;;;;;;;;;5064658;28;20025;-64
2024/02/23 11:44:17;;;;;;;9.38;1.10;;;;;;;;;;5058719;28;20676;-61
2024/02/23 11:46:43;;;;;;;10.60;1.88;;;;;;;;;;5060895;28;20036;-61
2024/02/23 11:49:09;;;;;;;4.93;0.82;;;;;;;;;;5061332;28;20481;-61
2024/02/23 11:51:36;;;;;;;6.63;0.90;;;;;;;;;;5064002;28;20405;-60
2024/02/23 11:54:02;;;;;;;4.97;0.80;;;;;;;;;;5061362;28;20028;-60
2024/02/23 11:56:29;;;;;;;5.05;1.27;;;;;;;;;;5062585;28;20058;-61
2024/02/23 11:58:55;;;;;;;6.40;0.90;;;;;;;;;;5068416;28;20398;-60
2024/02/23 12:01:21;;;;;;;10.38;1.58;;;;;;;;;;5059688;28;20505;-61
2024/02/23 12:03:48;;;;;;;5.65;0.85;;;;;;;;;;5060267;28;20047;-61
2024/02/23 12:06:18;;;;;;;4.43;0.77;;;;;;;;;;5062986;28;20032;-61
2024/02/23 12:08:45;;;;;;;9.07;1.48;;;;;;;;;;5061269;28;20039;-61
2024/02/23 12:11:11;;;;;;;8.75;1.33;;;;;;;;;;5062933;28;20029;-61
2024/02/23 12:13:37;;;;;;;10.10;0.90;;;;;;;;;;5058598;28;20029;-62
2024/02/23 12:16:04;;;;;;;6.00;1.10;;;;;;;;;;5062711;28;20029;-61
2024/02/23 12:18:30;;;;;;;5.55;1.00;;;;;;;;;;5063582;28;20016;-62
2024/02/23 12:21:06;;;;;;;13.68;0.88;;;;;;;;;;5063355;28;20455;-61
2024/02/23 12:23:49;;;;;;;7.35;0.82;;;;;;;;;;5058019;28;20374;-61
2024/02/23 12:26:18;;;;;;;8.25;1.15;;;;;;;;;;5058824;28;20035;-60
2024/02/23 12:28:45;;;;;;;5.93;0.85;;;;;;;;;;5060702;28;20025;-60
2024/02/23 12:31:11;;;;;;;5.85;1.10;;;;;;;;;;5069408;28;20017;-60
2024/02/23 12:33:39;;;;;;;4.70;0.63;;;;;;;;;;5068505;28;20038;-60
2024/02/23 12:36:05;;;;;;;3.53;2.33;;;;;;;;;;5061626;28;20036;-59
2024/02/23 12:38:32;;;;;;;3.00;0.98;;;;;;;;;;5063188;28;20021;-60
2024/02/23 12:40:58;;;;;;;6.85;1.10;;;;;;;;;;5063788;28;20394;-60
2024/02/23 12:43:24;;;;;;;3.10;0.90;;;;;;;;;;5063266;28;20367;-60
2024/02/23 12:45:57;;;;;;;4.60;0.70;;;;;;;;;;5050746;28;20024;-61
2024/02/23 12:48:22;;;;;;;6.38;0.70;;;;;;;;;;5064419;28;20024;-61
2024/02/23 12:50:49;;;;;;;5.45;1.00;;;;;;;;;;5070603;28;20066;-61
2024/02/23 12:53:34;;;;;;;4.35;0.82;;;;;;;;;;5067930;28;20054;-62
2024/02/23 12:56:04;;;;;;;4.75;0.63;;;;;;;;;;5070581;28;20025;-62
2024/02/23 12:58:31;;;;;;;6.35;1.20;;;;;;;;;;5064165;28;20108;-59
2024/02/23 13:00:57;;;;;;;4.88;0.68;;;;;;;;;;5068063;28;20428;-62
2024/02/23 13:03:24;;;;;;;7.18;1.00;;;;;;;;;;5069210;28;20557;-62
2024/02/23 13:05:50;;;;;;;4.03;0.80;;;;;;;;;;5074473;28;20066;-62
2024/02/23 13:08:16;;;;;;;3.22;0.85;;;;;;;;;;5067084;28;20036;-61
2024/02/23 13:10:42;;;;;;;4.18;0.95;;;;;;;;;;5064849;28;20024;-61
2024/02/23 13:13:08;;;;;;;9.07;0.88;;;;;;;;;;5059742;28;20057;-61
2024/02/23 13:15:36;;;;;;;11.15;1.10;;;;;;;;;;5064951;28;20020;-61
2024/02/23 13:18:02;;;;;;;7.57;0.93;;;;;;;;;;5065011;28;20414;-62
2024/02/23 13:20:28;;;;;;;4.15;1.10;;;;;;;;;;5064460;28;20033;-62
2024/02/23 13:22:54;;;;;;;9.75;1.25;;;;;;;;;;5066688;28;20359;-61
2024/02/23 13:25:20;;;;;;;5.85;0.93;;;;;;;;;;5054801;28;20115;-62
2024/02/23 13:27:46;;;;;;;1.77;0.88;;;;;;;;;;5064593;28;20036;-62
2024/02/23 13:30:12;;;;;;;2.75;0.90;;;;;;;;;;5068076;28;20124;-62
2024/02/23 13:32:38;;;;;;;11.00;1.27;;;;;;;;;;5069898;28;20451;-62
2024/02/23 13:35:06;;;;;;;2.13;0.75;;;;;;;;;;5068836;28;20099;-61
2024/02/23 13:37:32;;;;;;;2.40;0.80;;;;;;;;;;5068054;28;20036;-61
2024/02/23 13:39:58;;;;;;;5.25;0.80;;;;;;;;;;5066420;28;20409;-62
2024/02/23 13:42:24;;;;;;;1.60;0.63;;;;;;;;;;5069580;28;20016;-62
2024/02/23 13:44:50;;;;;;;11.82;1.67;;;;;;;;;;5057648;28;20426;-61
2024/02/23 13:47:17;;;;;;;2.92;0.60;;;;;;;;;;5062113;28;20044;-62
2024/02/23 13:49:42;;;;;;;8.30;2.47;;;;;;;;;;5066216;28;20091;-62
2024/02/23 13:52:09;;;;;;;3.95;1.02;;;;;;;;;;5062286;28;20485;-61
2024/02/23 13:54:35;;;;;;;4.68;1.52;;;;;;;;;;5062935;28;20021;-59
2024/02/23 13:57:01;;;;;;;12.52;4.15;;;;;;;;;;5066451;28;20474;-61
2024/02/23 13:59:26;;;;;;;5.38;1.35;;;;;;;;;;5062582;28;20037;-61
2024/02/23 14:01:53;;;;;;;4.22;1.00;;;;;;;;;;5064933;28;20024;-63
2024/02/23 14:04:18;;;;;;;9.13;1.45;;;;;;;;;;5062940;28;20056;-62
2024/02/23 14:06:44;;;;;;;7.43;0.75;;;;;;;;;;5064201;28;20056;-63
2024/02/23 14:09:10;;;;;;;4.55;1.33;;;;;;;;;;5064413;28;20047;-61
2024/02/23 14:11:36;;;;;;;4.07;1.15;;;;;;;;;;5064924;28;20094;-61
2024/02/23 14:14:02;;;;;;;3.60;0.70;;;;;;;;;;5062766;28;20029;-60
2024/02/23 14:16:29;;;;;;;3.42;0.60;;;;;;;;;;5063895;28;20090;-60
2024/02/23 14:18:55;;;;;;;2.55;0.70;;;;;;;;;;5059274;28;20037;-62
2024/02/23 14:21:22;;;;;;;3.80;0.88;;;;;;;;;;5063229;28;20665;-61
2024/02/23 14:23:48;;;;;;;4.72;1.38;;;;;;;;;;5064215;28;20016;-62
2024/02/23 14:26:14;;;;;;;3.47;1.10;;;;;;;;;;5067239;28;20395;-62
2024/02/23 14:28:40;;;;;;;2.60;0.60;;;;;;;;;;5063102;28;20379;-60
2024/02/23 14:31:06;;;;;;;7.93;2.35;;;;;;;;;;5066165;28;20025;-61
2024/02/23 14:33:33;;;;;;;3.00;0.75;;;;;;;;;;5066032;28;20021;-62
2024/02/23 14:35:58;;;;;;;8.48;1.63;;;;;;;;;;5063510;28;20024;-62
2024/02/23 14:38:24;;;;;;;7.57;1.50;;;;;;;;;;5066692;28;20397;-61